sensor_id;sensor_type;location;lat;lon;timestamp;P1;durP1;ratioP1;P2;durP2;ratioP2
7025;SDS011;3554;42.132;24.786;2022-08-01T00:02:27;7.37;;;6.90;;
7025;SDS011;3554;42.132;24.786;2022-08-01T00:04:56;6.63;;;6.10;;
7025;SDS011;3554;42.132;24.786;2022-08-01T00:07:23;7.00;;;6.60;;
7025;SDS011;3554;42.132;24.786;2022-08-01T00:09:49;7.77;;;7.23;;
7025;SDS011;3554;42.132;24.786;2022-08-01T00:12:16;6.93;;;6.57;;
7025;SDS011;3554;42.132;24.786;2022-08-01T00:14:43;7.67;;;7.23;;
7025;SDS011;3554;42.132;24.786;2022-08-01T00:17:10;6.97;;;6.67;;
7025;SDS011;3554;42.132;24.786;2022-08-01T00:19:38;7.40;;;6.80;;
7025;SDS011;3554;42.132;24.786;2022-08-01T00:22:05;6.20;;;6.00;;
7025;SDS011;3554;42.132;24.786;2022-08-01T00:24:32;7.20;;;6.90;;
7025;SDS011;3554;42.132;24.786;2022-08-01T00:26:59;7.50;;;6.80;;
7025;SDS011;3554;42.132;24.786;2022-08-01T00:29:25;6.87;;;6.57;;
7025;SDS011;3554;42.132;24.786;2022-08-01T00:31:52;6.47;;;6.17;;
7025;SDS011;3554;42.132;24.786;2022-08-01T00:34:19;7.77;;;7.33;;
7025;SDS011;3554;42.132;24.786;2022-08-01T00:36:47;7.53;;;7.00;;
7025;SDS011;3554;42.132;24.786;2022-08-01T00:39:14;7.30;;;7.00;;
7025;SDS011;3554;42.132;24.786;2022-08-01T00:41:41;6.90;;;6.60;;
7025;SDS011;3554;42.132;24.786;2022-08-01T00:44:08;6.90;;;6.60;;
7025;SDS011;3554;42.132;24.786;2022-08-01T00:46:35;7.23;;;6.70;;
7025;SDS011;3554;42.132;24.786;2022-08-01T00:49:02;7.20;;;6.90;;
7025;SDS011;3554;42.132;24.786;2022-08-01T00:51:29;6.80;;;6.50;;
7025;SDS011;3554;42.132;24.786;2022-08-01T00:53:58;6.90;;;6.50;;
7025;SDS011;3554;42.132;24.786;2022-08-01T00:56:27;6.70;;;6.50;;
7025;SDS011;3554;42.132;24.786;2022-08-01T00:58:54;6.80;;;6.40;;
7025;SDS011;3554;42.132;24.786;2022-08-01T01:01:22;6.93;;;6.53;;
7025;SDS011;3554;42.132;24.786;2022-08-01T01:03:49;7.47;;;6.77;;
7025;SDS011;3554;42.132;24.786;2022-08-01T01:06:25;7.47;;;7.00;;
7025;SDS011;3554;42.132;24.786;2022-08-01T01:09:09;7.73;;;6.77;;
7025;SDS011;3554;42.132;24.786;2022-08-01T01:11:44;6.57;;;6.37;;
7025;SDS011;3554;42.132;24.786;2022-08-01T01:14:21;6.93;;;6.63;;
7025;SDS011;3554;42.132;24.786;2022-08-01T01:16:56;6.87;;;6.37;;
7025;SDS011;3554;42.132;24.786;2022-08-01T01:19:28;7.10;;;6.53;;
7025;SDS011;3554;42.132;24.786;2022-08-01T01:22:17;7.00;;;6.70;;
7025;SDS011;3554;42.132;24.786;2022-08-01T01:24:51;6.87;;;6.57;;
7025;SDS011;3554;42.132;24.786;2022-08-01T01:27:32;6.33;;;6.03;;
7025;SDS011;3554;42.132;24.786;2022-08-01T01:30:10;6.57;;;6.27;;
7025;SDS011;3554;42.132;24.786;2022-08-01T01:32:38;6.60;;;6.20;;
7025;SDS011;3554;42.132;24.786;2022-08-01T01:35:09;6.30;;;6.00;;
7025;SDS011;3554;42.132;24.786;2022-08-01T01:37:47;6.33;;;6.13;;
7025;SDS011;3554;42.132;24.786;2022-08-01T01:40:19;6.40;;;6.10;;
7025;SDS011;3554;42.132;24.786;2022-08-01T01:42:48;7.30;;;7.00;;
7025;SDS011;3554;42.132;24.786;2022-08-01T01:45:18;6.77;;;6.47;;
7025;SDS011;3554;42.132;24.786;2022-08-01T01:47:45;6.57;;;6.27;;
7025;SDS011;3554;42.132;24.786;2022-08-01T01:50:12;6.70;;;6.37;;
7025;SDS011;3554;42.132;24.786;2022-08-01T01:52:41;6.53;;;6.33;;
7025;SDS011;3554;42.132;24.786;2022-08-01T01:55:10;6.90;;;6.60;;
7025;SDS011;3554;42.132;24.786;2022-08-01T01:57:40;6.57;;;6.27;;
7025;SDS011;3554;42.132;24.786;2022-08-01T02:00:09;7.47;;;6.97;;
7025;SDS011;3554;42.132;24.786;2022-08-01T02:02:39;7.10;;;6.70;;
7025;SDS011;3554;42.132;24.786;2022-08-01T02:05:09;6.63;;;6.33;;
7025;SDS011;3554;42.132;24.786;2022-08-01T02:07:37;6.87;;;6.47;;
7025;SDS011;3554;42.132;24.786;2022-08-01T02:10:06;6.83;;;6.43;;
7025;SDS011;3554;42.132;24.786;2022-08-01T02:12:35;6.93;;;6.60;;
7025;SDS011;3554;42.132;24.786;2022-08-01T02:15:04;6.70;;;6.30;;
7025;SDS011;3554;42.132;24.786;2022-08-01T02:17:34;7.63;;;6.87;;
7025;SDS011;3554;42.132;24.786;2022-08-01T02:20:08;6.57;;;6.17;;
7025;SDS011;3554;42.132;24.786;2022-08-01T02:22:37;6.43;;;6.23;;
7025;SDS011;3554;42.132;24.786;2022-08-01T02:25:10;6.40;;;6.10;;
7025;SDS011;3554;42.132;24.786;2022-08-01T02:27:42;6.00;;;5.80;;
7025;SDS011;3554;42.132;24.786;2022-08-01T02:30:13;6.60;;;6.30;;
7025;SDS011;3554;42.132;24.786;2022-08-01T02:32:43;6.17;;;5.80;;
7025;SDS011;3554;42.132;24.786;2022-08-01T02:35:20;5.83;;;5.63;;
7025;SDS011;3554;42.132;24.786;2022-08-01T02:37:52;6.47;;;6.07;;
7025;SDS011;3554;42.132;24.786;2022-08-01T02:40:23;6.43;;;6.10;;
7025;SDS011;3554;42.132;24.786;2022-08-01T02:42:52;6.73;;;6.20;;
7025;SDS011;3554;42.132;24.786;2022-08-01T02:45:24;5.73;;;5.53;;
7025;SDS011;3554;42.132;24.786;2022-08-01T02:47:53;5.60;;;5.30;;
7025;SDS011;3554;42.132;24.786;2022-08-01T02:50:25;6.10;;;5.50;;
7025;SDS011;3554;42.132;24.786;2022-08-01T02:52:54;6.60;;;6.13;;
7025;SDS011;3554;42.132;24.786;2022-08-01T02:55:23;6.10;;;5.80;;
7025;SDS011;3554;42.132;24.786;2022-08-01T02:57:51;6.37;;;5.97;;
7025;SDS011;3554;42.132;24.786;2022-08-01T03:00:20;5.77;;;5.40;;
7025;SDS011;3554;42.132;24.786;2022-08-01T03:02:48;6.20;;;5.80;;
7025;SDS011;3554;42.132;24.786;2022-08-01T03:05:18;5.53;;;5.33;;
7025;SDS011;3554;42.132;24.786;2022-08-01T03:07:47;5.30;;;5.00;;
7025;SDS011;3554;42.132;24.786;2022-08-01T03:10:15;5.90;;;5.70;;
7025;SDS011;3554;42.132;24.786;2022-08-01T03:12:43;5.43;;;5.17;;
7025;SDS011;3554;42.132;24.786;2022-08-01T03:15:11;5.67;;;5.47;;
7025;SDS011;3554;42.132;24.786;2022-08-01T03:17:40;5.23;;;4.90;;
7025;SDS011;3554;42.132;24.786;2022-08-01T03:20:09;5.70;;;5.40;;
7025;SDS011;3554;42.132;24.786;2022-08-01T03:22:39;5.40;;;4.90;;
7025;SDS011;3554;42.132;24.786;2022-08-01T03:25:10;4.83;;;4.60;;
7025;SDS011;3554;42.132;24.786;2022-08-01T03:27:40;5.60;;;5.23;;
7025;SDS011;3554;42.132;24.786;2022-08-01T03:30:10;6.33;;;5.20;;
7025;SDS011;3554;42.132;24.786;2022-08-01T03:32:40;4.93;;;4.33;;
7025;SDS011;3554;42.132;24.786;2022-08-01T03:35:07;5.17;;;4.90;;
7025;SDS011;3554;42.132;24.786;2022-08-01T03:37:36;4.67;;;4.37;;
7025;SDS011;3554;42.132;24.786;2022-08-01T03:40:11;5.23;;;4.80;;
7025;SDS011;3554;42.132;24.786;2022-08-01T03:42:44;4.40;;;4.17;;
7025;SDS011;3554;42.132;24.786;2022-08-01T03:45:15;4.27;;;4.17;;
7025;SDS011;3554;42.132;24.786;2022-08-01T03:47:47;4.10;;;3.70;;
7025;SDS011;3554;42.132;24.786;2022-08-01T03:50:18;4.20;;;4.00;;
7025;SDS011;3554;42.132;24.786;2022-08-01T03:52:47;5.60;;;4.53;;
7025;SDS011;3554;42.132;24.786;2022-08-01T03:55:17;4.33;;;4.00;;
7025;SDS011;3554;42.132;24.786;2022-08-01T03:57:47;4.13;;;3.80;;
7025;SDS011;3554;42.132;24.786;2022-08-01T04:00:14;4.20;;;3.60;;
7025;SDS011;3554;42.132;24.786;2022-08-01T04:02:44;6.20;;;3.23;;
7025;SDS011;3554;42.132;24.786;2022-08-01T04:05:11;6.37;;;3.97;;
7025;SDS011;3554;42.132;24.786;2022-08-01T04:07:38;4.93;;;4.37;;
7025;SDS011;3554;42.132;24.786;2022-08-01T04:10:08;3.53;;;3.33;;
7025;SDS011;3554;42.132;24.786;2022-08-01T04:12:36;3.80;;;3.50;;
7025;SDS011;3554;42.132;24.786;2022-08-01T04:15:03;3.70;;;3.53;;
7025;SDS011;3554;42.132;24.786;2022-08-01T04:17:31;3.57;;;3.47;;
7025;SDS011;3554;42.132;24.786;2022-08-01T04:19:58;3.50;;;3.20;;
7025;SDS011;3554;42.132;24.786;2022-08-01T04:22:25;3.67;;;3.50;;
7025;SDS011;3554;42.132;24.786;2022-08-01T04:24:53;3.73;;;3.47;;
7025;SDS011;3554;42.132;24.786;2022-08-01T04:27:25;3.90;;;3.70;;
7025;SDS011;3554;42.132;24.786;2022-08-01T04:29:58;3.30;;;3.10;;
7025;SDS011;3554;42.132;24.786;2022-08-01T04:32:26;3.37;;;3.17;;
7025;SDS011;3554;42.132;24.786;2022-08-01T04:34:56;3.30;;;3.10;;
7025;SDS011;3554;42.132;24.786;2022-08-01T04:37:26;4.17;;;3.57;;
7025;SDS011;3554;42.132;24.786;2022-08-01T04:39:55;8.73;;;3.63;;
7025;SDS011;3554;42.132;24.786;2022-08-01T04:42:24;4.23;;;3.93;;
7025;SDS011;3554;42.132;24.786;2022-08-01T04:44:51;3.90;;;3.60;;
7025;SDS011;3554;42.132;24.786;2022-08-01T04:47:19;3.10;;;3.00;;
7025;SDS011;3554;42.132;24.786;2022-08-01T04:49:48;3.10;;;3.00;;
7025;SDS011;3554;42.132;24.786;2022-08-01T04:52:15;3.70;;;3.50;;
7025;SDS011;3554;42.132;24.786;2022-08-01T04:54:43;3.43;;;3.23;;
7025;SDS011;3554;42.132;24.786;2022-08-01T04:57:11;4.80;;;3.27;;
7025;SDS011;3554;42.132;24.786;2022-08-01T04:59:42;5.53;;;3.10;;
7025;SDS011;3554;42.132;24.786;2022-08-01T05:02:11;3.97;;;3.50;;
7025;SDS011;3554;42.132;24.786;2022-08-01T05:04:42;4.70;;;3.37;;
7025;SDS011;3554;42.132;24.786;2022-08-01T05:07:10;5.37;;;3.23;;
7025;SDS011;3554;42.132;24.786;2022-08-01T05:09:37;3.07;;;2.97;;
7025;SDS011;3554;42.132;24.786;2022-08-01T05:12:06;3.07;;;2.90;;
7025;SDS011;3554;42.132;24.786;2022-08-01T05:14:34;3.53;;;3.33;;
7025;SDS011;3554;42.132;24.786;2022-08-01T05:17:02;3.80;;;3.40;;
7025;SDS011;3554;42.132;24.786;2022-08-01T05:19:30;3.57;;;3.20;;
7025;SDS011;3554;42.132;24.786;2022-08-01T05:21:59;3.40;;;3.10;;
7025;SDS011;3554;42.132;24.786;2022-08-01T05:24:26;3.10;;;3.00;;
7025;SDS011;3554;42.132;24.786;2022-08-01T05:26:54;3.30;;;3.20;;
7025;SDS011;3554;42.132;24.786;2022-08-01T05:29:21;3.43;;;3.10;;
7025;SDS011;3554;42.132;24.786;2022-08-01T05:31:48;3.10;;;2.80;;
7025;SDS011;3554;42.132;24.786;2022-08-01T05:34:15;3.17;;;2.97;;
7025;SDS011;3554;42.132;24.786;2022-08-01T05:36:44;3.17;;;2.97;;
7025;SDS011;3554;42.132;24.786;2022-08-01T05:39:13;4.20;;;2.90;;
7025;SDS011;3554;42.132;24.786;2022-08-01T05:41:40;3.37;;;3.17;;
7025;SDS011;3554;42.132;24.786;2022-08-01T05:44:07;3.60;;;3.30;;
7025;SDS011;3554;42.132;24.786;2022-08-01T05:46:35;3.83;;;3.63;;
7025;SDS011;3554;42.132;24.786;2022-08-01T05:49:02;3.10;;;2.90;;
7025;SDS011;3554;42.132;24.786;2022-08-01T05:51:31;5.40;;;3.73;;
7025;SDS011;3554;42.132;24.786;2022-08-01T05:53:58;4.63;;;3.33;;
7025;SDS011;3554;42.132;24.786;2022-08-01T05:56:27;3.03;;;2.93;;
7025;SDS011;3554;42.132;24.786;2022-08-01T05:58:54;3.83;;;3.03;;
7025;SDS011;3554;42.132;24.786;2022-08-01T06:01:21;3.47;;;3.33;;
7025;SDS011;3554;42.132;24.786;2022-08-01T06:03:48;2.83;;;2.70;;
7025;SDS011;3554;42.132;24.786;2022-08-01T06:06:15;3.47;;;2.33;;
7025;SDS011;3554;42.132;24.786;2022-08-01T06:08:42;3.40;;;2.63;;
7025;SDS011;3554;42.132;24.786;2022-08-01T06:11:09;4.00;;;2.23;;
7025;SDS011;3554;42.132;24.786;2022-08-01T06:13:37;2.83;;;2.23;;
7025;SDS011;3554;42.132;24.786;2022-08-01T06:16:04;2.83;;;2.23;;
7025;SDS011;3554;42.132;24.786;2022-08-01T06:18:31;2.40;;;2.13;;
7025;SDS011;3554;42.132;24.786;2022-08-01T06:20:58;5.63;;;2.10;;
7025;SDS011;3554;42.132;24.786;2022-08-01T06:23:25;4.03;;;2.00;;
7025;SDS011;3554;42.132;24.786;2022-08-01T06:25:51;2.60;;;2.00;;
7025;SDS011;3554;42.132;24.786;2022-08-01T06:28:19;4.03;;;1.87;;
7025;SDS011;3554;42.132;24.786;2022-08-01T06:30:47;2.20;;;2.03;;
7025;SDS011;3554;42.132;24.786;2022-08-01T06:33:14;4.07;;;1.67;;
7025;SDS011;3554;42.132;24.786;2022-08-01T06:35:41;3.77;;;2.23;;
7025;SDS011;3554;42.132;24.786;2022-08-01T06:38:08;11.77;;;3.03;;
7025;SDS011;3554;42.132;24.786;2022-08-01T06:40:35;4.70;;;1.97;;
7025;SDS011;3554;42.132;24.786;2022-08-01T06:43:03;6.40;;;2.20;;
7025;SDS011;3554;42.132;24.786;2022-08-01T06:45:30;4.90;;;1.97;;
7025;SDS011;3554;42.132;24.786;2022-08-01T06:47:58;3.67;;;2.07;;
7025;SDS011;3554;42.132;24.786;2022-08-01T06:50:25;4.03;;;2.10;;
7025;SDS011;3554;42.132;24.786;2022-08-01T06:52:52;11.43;;;2.90;;
7025;SDS011;3554;42.132;24.786;2022-08-01T06:55:18;1.57;;;1.57;;
7025;SDS011;3554;42.132;24.786;2022-08-01T06:57:46;5.10;;;2.17;;
7025;SDS011;3554;42.132;24.786;2022-08-01T07:00:14;3.60;;;2.30;;
7025;SDS011;3554;42.132;24.786;2022-08-01T07:02:43;16.20;;;2.70;;
7025;SDS011;3554;42.132;24.786;2022-08-01T07:05:12;2.93;;;2.10;;
7025;SDS011;3554;42.132;24.786;2022-08-01T07:07:39;1.93;;;1.80;;
7025;SDS011;3554;42.132;24.786;2022-08-01T07:10:06;5.47;;;2.27;;
7025;SDS011;3554;42.132;24.786;2022-08-01T07:12:34;3.83;;;2.07;;
7025;SDS011;3554;42.132;24.786;2022-08-01T07:15:03;4.23;;;1.97;;
7025;SDS011;3554;42.132;24.786;2022-08-01T07:17:30;2.00;;;1.90;;
7025;SDS011;3554;42.132;24.786;2022-08-01T07:19:57;3.00;;;2.20;;
7025;SDS011;3554;42.132;24.786;2022-08-01T07:22:25;2.80;;;1.97;;
7025;SDS011;3554;42.132;24.786;2022-08-01T07:24:52;62.53;;;6.37;;
7025;SDS011;3554;42.132;24.786;2022-08-01T07:27:19;3.30;;;2.23;;
7025;SDS011;3554;42.132;24.786;2022-08-01T07:29:46;5.30;;;2.10;;
7025;SDS011;3554;42.132;24.786;2022-08-01T07:32:13;2.33;;;1.83;;
7025;SDS011;3554;42.132;24.786;2022-08-01T07:34:39;2.63;;;2.00;;
7025;SDS011;3554;42.132;24.786;2022-08-01T07:37:06;4.83;;;1.83;;
7025;SDS011;3554;42.132;24.786;2022-08-01T07:39:34;14.33;;;3.07;;
7025;SDS011;3554;42.132;24.786;2022-08-01T07:42:01;2.40;;;2.00;;
7025;SDS011;3554;42.132;24.786;2022-08-01T07:44:28;8.37;;;2.43;;
7025;SDS011;3554;42.132;24.786;2022-08-01T07:46:55;12.57;;;2.60;;
7025;SDS011;3554;42.132;24.786;2022-08-01T07:49:22;1.77;;;1.67;;
7025;SDS011;3554;42.132;24.786;2022-08-01T07:51:49;7.50;;;2.00;;
7025;SDS011;3554;42.132;24.786;2022-08-01T07:54:16;6.97;;;2.17;;
7025;SDS011;3554;42.132;24.786;2022-08-01T07:56:44;3.30;;;2.23;;
7025;SDS011;3554;42.132;24.786;2022-08-01T07:59:10;21.90;;;2.90;;
7025;SDS011;3554;42.132;24.786;2022-08-01T08:01:37;2.30;;;1.63;;
7025;SDS011;3554;42.132;24.786;2022-08-01T08:04:04;2.67;;;1.63;;
7025;SDS011;3554;42.132;24.786;2022-08-01T08:06:31;6.07;;;1.80;;
7025;SDS011;3554;42.132;24.786;2022-08-01T08:08:58;5.67;;;2.23;;
7025;SDS011;3554;42.132;24.786;2022-08-01T08:11:24;23.30;;;3.00;;
7025;SDS011;3554;42.132;24.786;2022-08-01T08:13:53;44.17;;;5.43;;
7025;SDS011;3554;42.132;24.786;2022-08-01T08:16:19;14.53;;;2.70;;
7025;SDS011;3554;42.132;24.786;2022-08-01T08:18:47;1.80;;;1.70;;
7025;SDS011;3554;42.132;24.786;2022-08-01T08:21:13;6.67;;;1.80;;
7025;SDS011;3554;42.132;24.786;2022-08-01T08:23:40;3.33;;;1.70;;
7025;SDS011;3554;42.132;24.786;2022-08-01T08:26:24;7.10;;;2.13;;
7025;SDS011;3554;42.132;24.786;2022-08-01T08:28:53;4.90;;;2.40;;
7025;SDS011;3554;42.132;24.786;2022-08-01T08:31:19;6.37;;;2.20;;
7025;SDS011;3554;42.132;24.786;2022-08-01T08:33:46;3.30;;;1.77;;
7025;SDS011;3554;42.132;24.786;2022-08-01T08:36:13;2.27;;;1.60;;
7025;SDS011;3554;42.132;24.786;2022-08-01T08:38:40;5.10;;;2.10;;
7025;SDS011;3554;42.132;24.786;2022-08-01T08:41:07;1.93;;;1.67;;
7025;SDS011;3554;42.132;24.786;2022-08-01T08:43:35;9.77;;;2.03;;
7025;SDS011;3554;42.132;24.786;2022-08-01T08:46:03;3.13;;;1.70;;
7025;SDS011;3554;42.132;24.786;2022-08-01T08:48:34;2.33;;;1.93;;
7025;SDS011;3554;42.132;24.786;2022-08-01T08:51:02;1.93;;;1.70;;
7025;SDS011;3554;42.132;24.786;2022-08-01T08:53:29;2.40;;;1.37;;
7025;SDS011;3554;42.132;24.786;2022-08-01T08:55:58;3.57;;;2.03;;
7025;SDS011;3554;42.132;24.786;2022-08-01T08:58:26;6.20;;;2.00;;
7025;SDS011;3554;42.132;24.786;2022-08-01T09:00:53;4.77;;;1.90;;
7025;SDS011;3554;42.132;24.786;2022-08-01T09:03:22;1.70;;;1.70;;
7025;SDS011;3554;42.132;24.786;2022-08-01T09:05:48;3.03;;;1.50;;
7025;SDS011;3554;42.132;24.786;2022-08-01T09:08:15;7.37;;;1.87;;
7025;SDS011;3554;42.132;24.786;2022-08-01T09:10:42;3.50;;;1.70;;
7025;SDS011;3554;42.132;24.786;2022-08-01T09:15:40;2.37;;;1.60;;
7025;SDS011;3554;42.132;24.786;2022-08-01T09:18:09;2.50;;;1.63;;
7025;SDS011;3554;42.132;24.786;2022-08-01T09:21:07;30.50;;;3.53;;
7025;SDS011;3554;42.132;24.786;2022-08-01T09:23:40;3.97;;;2.00;;
7025;SDS011;3554;42.132;24.786;2022-08-01T09:26:09;5.23;;;2.27;;
7025;SDS011;3554;42.132;24.786;2022-08-01T09:28:37;3.90;;;1.90;;
7025;SDS011;3554;42.132;24.786;2022-08-01T09:31:08;5.47;;;2.13;;
7025;SDS011;3554;42.132;24.786;2022-08-01T09:33:51;7.80;;;1.63;;
7025;SDS011;3554;42.132;24.786;2022-08-01T09:36:19;2.73;;;1.43;;
7025;SDS011;3554;42.132;24.786;2022-08-01T09:38:47;3.10;;;1.50;;
7025;SDS011;3554;42.132;24.786;2022-08-01T09:41:15;1.80;;;1.50;;
7025;SDS011;3554;42.132;24.786;2022-08-01T09:43:47;1.60;;;1.40;;
7025;SDS011;3554;42.132;24.786;2022-08-01T09:46:15;1.67;;;1.57;;
7025;SDS011;3554;42.132;24.786;2022-08-01T09:48:55;13.03;;;2.47;;
7025;SDS011;3554;42.132;24.786;2022-08-01T09:51:29;10.70;;;2.13;;
7025;SDS011;3554;42.132;24.786;2022-08-01T09:53:58;1.40;;;1.30;;
7025;SDS011;3554;42.132;24.786;2022-08-01T09:56:26;3.53;;;1.73;;
7025;SDS011;3554;42.132;24.786;2022-08-01T09:59:01;10.17;;;1.70;;
7025;SDS011;3554;42.132;24.786;2022-08-01T10:01:28;3.37;;;1.70;;
7025;SDS011;3554;42.132;24.786;2022-08-01T10:04:05;6.90;;;1.63;;
7025;SDS011;3554;42.132;24.786;2022-08-01T10:06:33;6.90;;;2.00;;
7025;SDS011;3554;42.132;24.786;2022-08-01T10:09:01;2.03;;;1.70;;
7025;SDS011;3554;42.132;24.786;2022-08-01T10:11:28;3.77;;;1.87;;
7025;SDS011;3554;42.132;24.786;2022-08-01T10:13:56;7.67;;;2.03;;
7025;SDS011;3554;42.132;24.786;2022-08-01T10:16:25;7.83;;;1.90;;
7025;SDS011;3554;42.132;24.786;2022-08-01T10:18:54;1.90;;;1.53;;
7025;SDS011;3554;42.132;24.786;2022-08-01T10:21:24;6.83;;;1.63;;
7025;SDS011;3554;42.132;24.786;2022-08-01T10:23:53;1.90;;;1.10;;
7025;SDS011;3554;42.132;24.786;2022-08-01T10:26:21;5.23;;;1.73;;
7025;SDS011;3554;42.132;24.786;2022-08-01T10:28:51;5.87;;;1.97;;
7025;SDS011;3554;42.132;24.786;2022-08-01T10:31:20;1.73;;;1.50;;
7025;SDS011;3554;42.132;24.786;2022-08-01T10:33:47;1.57;;;1.40;;
7025;SDS011;3554;42.132;24.786;2022-08-01T10:36:16;2.30;;;1.60;;
7025;SDS011;3554;42.132;24.786;2022-08-01T10:38:46;10.30;;;1.73;;
7025;SDS011;3554;42.132;24.786;2022-08-01T10:41:13;3.53;;;1.63;;
7025;SDS011;3554;42.132;24.786;2022-08-01T10:43:42;4.33;;;1.83;;
7025;SDS011;3554;42.132;24.786;2022-08-01T10:46:09;3.80;;;1.40;;
7025;SDS011;3554;42.132;24.786;2022-08-01T10:48:39;3.97;;;1.40;;
7025;SDS011;3554;42.132;24.786;2022-08-01T10:51:11;3.47;;;1.63;;
7025;SDS011;3554;42.132;24.786;2022-08-01T10:53:46;2.70;;;2.13;;
7025;SDS011;3554;42.132;24.786;2022-08-01T10:56:14;2.23;;;2.13;;
7025;SDS011;3554;42.132;24.786;2022-08-01T10:58:42;5.87;;;2.50;;
7025;SDS011;3554;42.132;24.786;2022-08-01T11:01:20;3.73;;;1.77;;
7025;SDS011;3554;42.132;24.786;2022-08-01T11:04:02;3.47;;;2.00;;
7025;SDS011;3554;42.132;24.786;2022-08-01T11:06:41;2.67;;;2.47;;
7025;SDS011;3554;42.132;24.786;2022-08-01T11:09:26;2.70;;;2.20;;
7025;SDS011;3554;42.132;24.786;2022-08-01T11:11:59;1.70;;;1.60;;
7025;SDS011;3554;42.132;24.786;2022-08-01T11:14:30;1.70;;;1.60;;
7025;SDS011;3554;42.132;24.786;2022-08-01T11:20:04;1.30;;;1.30;;
7025;SDS011;3554;42.132;24.786;2022-08-01T11:22:35;2.33;;;1.93;;
7025;SDS011;3554;42.132;24.786;2022-08-01T11:31:44;3.73;;;1.70;;
7025;SDS011;3554;42.132;24.786;2022-08-01T11:34:11;3.43;;;2.17;;
7025;SDS011;3554;42.132;24.786;2022-08-01T11:36:38;4.00;;;2.40;;
7025;SDS011;3554;42.132;24.786;2022-08-01T11:39:12;3.77;;;3.57;;
7025;SDS011;3554;42.132;24.786;2022-08-01T11:41:44;10.90;;;2.97;;
7025;SDS011;3554;42.132;24.786;2022-08-01T11:44:14;5.53;;;2.00;;
7025;SDS011;3554;42.132;24.786;2022-08-01T11:46:50;8.67;;;2.97;;
7025;SDS011;3554;42.132;24.786;2022-08-01T11:49:25;6.77;;;1.80;;
7025;SDS011;3554;42.132;24.786;2022-08-01T11:51:57;2.40;;;1.70;;
7025;SDS011;3554;42.132;24.786;2022-08-01T11:54:30;2.73;;;1.77;;
7025;SDS011;3554;42.132;24.786;2022-08-01T11:57:01;1.70;;;1.60;;
7025;SDS011;3554;42.132;24.786;2022-08-01T11:59:35;1.73;;;1.60;;
7025;SDS011;3554;42.132;24.786;2022-08-01T12:02:03;3.03;;;1.97;;
7025;SDS011;3554;42.132;24.786;2022-08-01T12:04:44;5.83;;;1.93;;
7025;SDS011;3554;42.132;24.786;2022-08-01T12:07:11;1.47;;;1.33;;
7025;SDS011;3554;42.132;24.786;2022-08-01T12:09:39;1.60;;;1.50;;
7025;SDS011;3554;42.132;24.786;2022-08-01T12:12:07;1.70;;;1.63;;
7025;SDS011;3554;42.132;24.786;2022-08-01T12:14:35;2.03;;;1.73;;
7025;SDS011;3554;42.132;24.786;2022-08-01T12:17:03;1.47;;;1.37;;
7025;SDS011;3554;42.132;24.786;2022-08-01T12:19:30;1.80;;;1.47;;
7025;SDS011;3554;42.132;24.786;2022-08-01T12:22:07;1.50;;;1.50;;
7025;SDS011;3554;42.132;24.786;2022-08-01T12:24:35;3.33;;;1.73;;
7025;SDS011;3554;42.132;24.786;2022-08-01T12:27:03;2.50;;;2.30;;
7025;SDS011;3554;42.132;24.786;2022-08-01T12:29:36;2.60;;;1.70;;
7025;SDS011;3554;42.132;24.786;2022-08-01T12:32:04;2.10;;;1.40;;
7025;SDS011;3554;42.132;24.786;2022-08-01T12:34:47;1.50;;;1.40;;
7025;SDS011;3554;42.132;24.786;2022-08-01T12:37:13;1.67;;;1.57;;
7025;SDS011;3554;42.132;24.786;2022-08-01T12:39:40;5.33;;;2.17;;
7025;SDS011;3554;42.132;24.786;2022-08-01T12:42:07;1.60;;;1.60;;
7025;SDS011;3554;42.132;24.786;2022-08-01T12:44:37;1.83;;;1.73;;
7025;SDS011;3554;42.132;24.786;2022-08-01T12:47:05;2.10;;;1.53;;
7025;SDS011;3554;42.132;24.786;2022-08-01T12:49:33;4.43;;;1.83;;
7025;SDS011;3554;42.132;24.786;2022-08-01T12:52:03;3.70;;;1.90;;
7025;SDS011;3554;42.132;24.786;2022-08-01T12:57:36;2.67;;;1.90;;
7025;SDS011;3554;42.132;24.786;2022-08-01T13:00:07;2.43;;;1.70;;
7025;SDS011;3554;42.132;24.786;2022-08-01T13:02:40;1.43;;;1.43;;
7025;SDS011;3554;42.132;24.786;2022-08-01T13:05:07;1.60;;;1.50;;
7025;SDS011;3554;42.132;24.786;2022-08-01T13:07:39;4.60;;;1.73;;
7025;SDS011;3554;42.132;24.786;2022-08-01T13:10:12;3.83;;;2.10;;
7025;SDS011;3554;42.132;24.786;2022-08-01T13:12:40;2.10;;;1.80;;
7025;SDS011;3554;42.132;24.786;2022-08-01T13:15:23;3.53;;;1.63;;
7025;SDS011;3554;42.132;24.786;2022-08-01T13:17:53;1.70;;;1.60;;
7025;SDS011;3554;42.132;24.786;2022-08-01T13:20:24;12.53;;;2.43;;
7025;SDS011;3554;42.132;24.786;2022-08-01T13:22:52;1.80;;;1.70;;
7025;SDS011;3554;42.132;24.786;2022-08-01T13:25:19;6.50;;;1.97;;
7025;SDS011;3554;42.132;24.786;2022-08-01T13:27:46;3.83;;;1.80;;
7025;SDS011;3554;42.132;24.786;2022-08-01T13:30:14;4.03;;;2.10;;
7025;SDS011;3554;42.132;24.786;2022-08-01T13:32:43;2.37;;;1.90;;
7025;SDS011;3554;42.132;24.786;2022-08-01T13:35:23;2.37;;;1.80;;
7025;SDS011;3554;42.132;24.786;2022-08-01T13:37:49;1.53;;;1.53;;
7025;SDS011;3554;42.132;24.786;2022-08-01T13:40:22;2.53;;;1.77;;
7025;SDS011;3554;42.132;24.786;2022-08-01T13:42:50;4.53;;;2.10;;
7025;SDS011;3554;42.132;24.786;2022-08-01T13:45:17;2.20;;;2.10;;
7025;SDS011;3554;42.132;24.786;2022-08-01T13:47:45;2.03;;;1.93;;
7025;SDS011;3554;42.132;24.786;2022-08-01T13:50:12;2.00;;;1.83;;
7025;SDS011;3554;42.132;24.786;2022-08-01T13:52:39;1.50;;;1.50;;
7025;SDS011;3554;42.132;24.786;2022-08-01T13:55:07;2.77;;;1.47;;
7025;SDS011;3554;42.132;24.786;2022-08-01T13:57:34;4.53;;;1.80;;
7025;SDS011;3554;42.132;24.786;2022-08-01T14:00:01;1.97;;;1.70;;
7025;SDS011;3554;42.132;24.786;2022-08-01T14:02:29;3.03;;;1.43;;
7025;SDS011;3554;42.132;24.786;2022-08-01T14:04:57;6.90;;;1.80;;
7025;SDS011;3554;42.132;24.786;2022-08-01T14:07:24;2.33;;;1.90;;
7025;SDS011;3554;42.132;24.786;2022-08-01T14:09:51;1.93;;;1.83;;
7025;SDS011;3554;42.132;24.786;2022-08-01T14:12:18;4.70;;;1.73;;
7025;SDS011;3554;42.132;24.786;2022-08-01T14:14:44;4.20;;;1.80;;
7025;SDS011;3554;42.132;24.786;2022-08-01T14:17:11;2.70;;;1.63;;
7025;SDS011;3554;42.132;24.786;2022-08-01T14:19:38;4.97;;;1.87;;
7025;SDS011;3554;42.132;24.786;2022-08-01T14:22:06;2.53;;;2.30;;
7025;SDS011;3554;42.132;24.786;2022-08-01T14:24:33;1.90;;;1.80;;
7025;SDS011;3554;42.132;24.786;2022-08-01T14:27:00;4.37;;;2.33;;
7025;SDS011;3554;42.132;24.786;2022-08-01T14:29:27;2.37;;;2.20;;
7025;SDS011;3554;42.132;24.786;2022-08-01T14:31:54;1.90;;;1.80;;
7025;SDS011;3554;42.132;24.786;2022-08-01T14:34:21;1.80;;;1.70;;
7025;SDS011;3554;42.132;24.786;2022-08-01T14:36:47;1.77;;;1.67;;
7025;SDS011;3554;42.132;24.786;2022-08-01T14:39:15;2.80;;;2.60;;
7025;SDS011;3554;42.132;24.786;2022-08-01T14:41:43;6.47;;;2.07;;
7025;SDS011;3554;42.132;24.786;2022-08-01T14:44:10;1.80;;;1.70;;
7025;SDS011;3554;42.132;24.786;2022-08-01T14:46:37;1.77;;;1.67;;
7025;SDS011;3554;42.132;24.786;2022-08-01T14:49:03;4.93;;;1.73;;
7025;SDS011;3554;42.132;24.786;2022-08-01T14:51:30;2.43;;;2.20;;
7025;SDS011;3554;42.132;24.786;2022-08-01T14:53:59;1.87;;;1.77;;
7025;SDS011;3554;42.132;24.786;2022-08-01T14:56:27;2.53;;;2.23;;
7025;SDS011;3554;42.132;24.786;2022-08-01T14:58:54;3.10;;;2.40;;
7025;SDS011;3554;42.132;24.786;2022-08-01T15:01:21;5.50;;;3.17;;
7025;SDS011;3554;42.132;24.786;2022-08-01T15:03:48;3.80;;;2.80;;
7025;SDS011;3554;42.132;24.786;2022-08-01T15:06:15;4.13;;;2.03;;
7025;SDS011;3554;42.132;24.786;2022-08-01T15:08:43;3.37;;;1.90;;
7025;SDS011;3554;42.132;24.786;2022-08-01T15:11:10;1.60;;;1.60;;
7025;SDS011;3554;42.132;24.786;2022-08-01T15:13:38;3.00;;;2.27;;
7025;SDS011;3554;42.132;24.786;2022-08-01T15:16:05;1.73;;;1.73;;
7025;SDS011;3554;42.132;24.786;2022-08-01T15:18:31;1.97;;;1.63;;
7025;SDS011;3554;42.132;24.786;2022-08-01T15:20:58;2.00;;;1.83;;
7025;SDS011;3554;42.132;24.786;2022-08-01T15:23:25;2.17;;;1.93;;
7025;SDS011;3554;42.132;24.786;2022-08-01T15:25:52;1.50;;;1.33;;
7025;SDS011;3554;42.132;24.786;2022-08-01T15:28:19;1.70;;;1.60;;